sensor_id;sensor_type;location;lat;lon;timestamp;P1;durP1;ratioP1;P2;durP2;ratioP2
15012;SDS011;7603;49.432;11.418;2022-10-19T00:00:02;74.18;;;22.42;;
15012;SDS011;7603;49.432;11.418;2022-10-19T00:02:29;55.80;;;17.63;;
15012;SDS011;7603;49.432;11.418;2022-10-19T00:04:54;53.60;;;17.02;;
15012;SDS011;7603;49.432;11.418;2022-10-19T00:07:20;49.97;;;18.75;;
15012;SDS011;7603;49.432;11.418;2022-10-19T00:09:45;29.38;;;14.30;;
15012;SDS011;7603;49.432;11.418;2022-10-19T00:12:11;52.17;;;17.40;;
15012;SDS011;7603;49.432;11.418;2022-10-19T00:14:37;31.83;;;15.90;;
15012;SDS011;7603;49.432;11.418;2022-10-19T00:17:03;12.10;;;10.75;;
15012;SDS011;7603;49.432;11.418;2022-10-19T00:19:28;17.20;;;10.88;;
15012;SDS011;7603;49.432;11.418;2022-10-19T00:21:54;21.02;;;12.55;;
15012;SDS011;7603;49.432;11.418;2022-10-19T00:24:19;21.63;;;12.48;;
15012;SDS011;7603;49.432;11.418;2022-10-19T00:26:45;19.70;;;11.75;;
15012;SDS011;7603;49.432;11.418;2022-10-19T00:29:11;19.98;;;10.68;;
15012;SDS011;7603;49.432;11.418;2022-10-19T00:31:38;11.18;;;9.50;;
15012;SDS011;7603;49.432;11.418;2022-10-19T00:34:04;10.68;;;8.50;;
15012;SDS011;7603;49.432;11.418;2022-10-19T00:36:31;14.70;;;10.10;;
15012;SDS011;7603;49.432;11.418;2022-10-19T00:38:59;10.65;;;8.20;;
15012;SDS011;7603;49.432;11.418;2022-10-19T00:41:26;13.52;;;9.82;;
15012;SDS011;7603;49.432;11.418;2022-10-19T00:46:46;15.10;;;9.70;;
15012;SDS011;7603;49.432;11.418;2022-10-19T00:49:36;14.77;;;7.63;;
15012;SDS011;7603;49.432;11.418;2022-10-19T00:52:07;17.17;;;7.10;;
15012;SDS011;7603;49.432;11.418;2022-10-19T00:54:35;8.00;;;7.03;;
15012;SDS011;7603;49.432;11.418;2022-10-19T00:57:03;8.82;;;5.68;;
15012;SDS011;7603;49.432;11.418;2022-10-19T00:59:30;8.02;;;6.72;;
15012;SDS011;7603;49.432;11.418;2022-10-19T01:01:56;9.38;;;6.80;;
15012;SDS011;7603;49.432;11.418;2022-10-19T01:04:24;7.05;;;5.95;;
15012;SDS011;7603;49.432;11.418;2022-10-19T01:06:53;7.03;;;5.70;;
15012;SDS011;7603;49.432;11.418;2022-10-19T01:09:20;13.18;;;6.50;;
15012;SDS011;7603;49.432;11.418;2022-10-19T01:11:51;8.07;;;5.43;;
15012;SDS011;7603;49.432;11.418;2022-10-19T01:17:26;9.40;;;6.13;;
15012;SDS011;7603;49.432;11.418;2022-10-19T01:22:59;7.50;;;5.22;;
15012;SDS011;7603;49.432;11.418;2022-10-19T01:34:23;6.93;;;5.20;;
15012;SDS011;7603;49.432;11.418;2022-10-19T01:37:11;10.25;;;6.57;;
15012;SDS011;7603;49.432;11.418;2022-10-19T01:40:05;9.00;;;6.07;;
15012;SDS011;7603;49.432;11.418;2022-10-19T01:43:00;20.98;;;10.05;;
15012;SDS011;7603;49.432;11.418;2022-10-19T01:45:50;5.65;;;4.80;;
15012;SDS011;7603;49.432;11.418;2022-10-19T01:48:21;8.18;;;4.78;;
15012;SDS011;7603;49.432;11.418;2022-10-19T01:51:11;15.15;;;7.57;;
15012;SDS011;7603;49.432;11.418;2022-10-19T01:53:43;14.55;;;7.72;;
15012;SDS011;7603;49.432;11.418;2022-10-19T01:56:13;18.83;;;9.38;;
15012;SDS011;7603;49.432;11.418;2022-10-19T01:58:42;16.05;;;8.88;;
15012;SDS011;7603;49.432;11.418;2022-10-19T02:01:09;25.98;;;11.02;;
15012;SDS011;7603;49.432;11.418;2022-10-19T02:03:37;17.27;;;10.02;;
15012;SDS011;7603;49.432;11.418;2022-10-19T02:06:04;53.55;;;13.40;;
15012;SDS011;7603;49.432;11.418;2022-10-19T02:08:45;72.28;;;18.73;;
15012;SDS011;7603;49.432;11.418;2022-10-19T02:11:14;39.05;;;11.70;;
15012;SDS011;7603;49.432;11.418;2022-10-19T02:13:41;49.25;;;10.55;;
15012;SDS011;7603;49.432;11.418;2022-10-19T02:16:15;30.27;;;10.70;;
15012;SDS011;7603;49.432;11.418;2022-10-19T02:18:49;66.13;;;16.20;;
15012;SDS011;7603;49.432;11.418;2022-10-19T02:21:17;80.53;;;22.77;;
15012;SDS011;7603;49.432;11.418;2022-10-19T02:23:44;297.23;;;35.53;;
15012;SDS011;7603;49.432;11.418;2022-10-19T02:26:09;224.40;;;34.13;;
15012;SDS011;7603;49.432;11.418;2022-10-19T02:28:35;164.63;;;22.48;;
15012;SDS011;7603;49.432;11.418;2022-10-19T02:31:01;136.48;;;17.45;;
15012;SDS011;7603;49.432;11.418;2022-10-19T02:33:27;72.60;;;18.02;;
15012;SDS011;7603;49.432;11.418;2022-10-19T02:35:54;90.20;;;20.33;;
15012;SDS011;7603;49.432;11.418;2022-10-19T02:38:21;207.80;;;26.20;;
15012;SDS011;7603;49.432;11.418;2022-10-19T02:41:12;92.28;;;20.42;;
15012;SDS011;7603;49.432;11.418;2022-10-19T02:43:49;313.83;;;37.78;;
15012;SDS011;7603;49.432;11.418;2022-10-19T02:46:22;203.80;;;22.17;;
15012;SDS011;7603;49.432;11.418;2022-10-19T02:49:02;195.10;;;21.50;;
15012;SDS011;7603;49.432;11.418;2022-10-19T02:51:34;174.50;;;19.05;;
15012;SDS011;7603;49.432;11.418;2022-10-19T02:54:02;199.02;;;22.73;;
15012;SDS011;7603;49.432;11.418;2022-10-19T02:56:29;96.50;;;13.90;;
15012;SDS011;7603;49.432;11.418;2022-10-19T02:58:54;118.22;;;15.00;;
15012;SDS011;7603;49.432;11.418;2022-10-19T03:01:20;196.00;;;20.35;;
15012;SDS011;7603;49.432;11.418;2022-10-19T03:03:46;132.65;;;15.77;;
15012;SDS011;7603;49.432;11.418;2022-10-19T03:06:12;266.70;;;27.85;;
15012;SDS011;7603;49.432;11.418;2022-10-19T03:08:38;118.43;;;14.48;;
15012;SDS011;7603;49.432;11.418;2022-10-19T03:11:04;81.20;;;11.82;;
15012;SDS011;7603;49.432;11.418;2022-10-19T03:13:29;91.20;;;13.18;;
15012;SDS011;7603;49.432;11.418;2022-10-19T03:15:55;88.43;;;13.23;;
15012;SDS011;7603;49.432;11.418;2022-10-19T03:18:21;47.67;;;9.55;;
15012;SDS011;7603;49.432;11.418;2022-10-19T03:20:46;89.53;;;13.60;;
15012;SDS011;7603;49.432;11.418;2022-10-19T03:23:12;147.07;;;15.82;;
15012;SDS011;7603;49.432;11.418;2022-10-19T03:25:37;92.22;;;13.10;;
15012;SDS011;7603;49.432;11.418;2022-10-19T03:28:03;77.53;;;15.32;;
15012;SDS011;7603;49.432;11.418;2022-10-19T03:30:29;29.73;;;9.10;;
15012;SDS011;7603;49.432;11.418;2022-10-19T03:32:54;52.63;;;10.60;;
15012;SDS011;7603;49.432;11.418;2022-10-19T03:35:20;13.05;;;7.00;;
15012;SDS011;7603;49.432;11.418;2022-10-19T03:37:45;10.10;;;6.72;;
15012;SDS011;7603;49.432;11.418;2022-10-19T03:40:11;11.52;;;7.63;;
15012;SDS011;7603;49.432;11.418;2022-10-19T03:42:37;12.80;;;6.53;;
15012;SDS011;7603;49.432;11.418;2022-10-19T03:45:02;10.57;;;5.55;;
15012;SDS011;7603;49.432;11.418;2022-10-19T03:47:28;8.05;;;5.38;;
15012;SDS011;7603;49.432;11.418;2022-10-19T03:49:54;6.50;;;4.63;;
15012;SDS011;7603;49.432;11.418;2022-10-19T03:52:19;9.65;;;5.28;;
15012;SDS011;7603;49.432;11.418;2022-10-19T03:54:48;18.80;;;5.90;;
15012;SDS011;7603;49.432;11.418;2022-10-19T03:57:13;9.00;;;5.30;;
15012;SDS011;7603;49.432;11.418;2022-10-19T03:59:39;12.65;;;6.28;;
15012;SDS011;7603;49.432;11.418;2022-10-19T04:02:05;12.77;;;6.28;;
15012;SDS011;7603;49.432;11.418;2022-10-19T04:04:30;5.90;;;5.28;;
15012;SDS011;7603;49.432;11.418;2022-10-19T04:06:56;9.38;;;5.30;;
15012;SDS011;7603;49.432;11.418;2022-10-19T04:09:22;6.90;;;4.53;;
15012;SDS011;7603;49.432;11.418;2022-10-19T04:11:48;9.15;;;5.15;;
15012;SDS011;7603;49.432;11.418;2022-10-19T04:14:15;6.38;;;5.78;;
15012;SDS011;7603;49.432;11.418;2022-10-19T04:16:42;8.23;;;6.53;;
15012;SDS011;7603;49.432;11.418;2022-10-19T04:19:08;12.70;;;6.90;;
15012;SDS011;7603;49.432;11.418;2022-10-19T04:21:38;28.25;;;15.57;;
15012;SDS011;7603;49.432;11.418;2022-10-19T04:24:12;10.68;;;7.57;;
15012;SDS011;7603;49.432;11.418;2022-10-19T04:26:40;18.27;;;8.75;;
15012;SDS011;7603;49.432;11.418;2022-10-19T04:29:10;28.65;;;14.80;;
15012;SDS011;7603;49.432;11.418;2022-10-19T04:31:37;14.75;;;9.88;;
15012;SDS011;7603;49.432;11.418;2022-10-19T04:34:04;29.33;;;14.63;;
15012;SDS011;7603;49.432;11.418;2022-10-19T04:36:30;19.67;;;9.60;;
15012;SDS011;7603;49.432;11.418;2022-10-19T04:38:56;19.27;;;7.88;;
15012;SDS011;7603;49.432;11.418;2022-10-19T04:41:21;44.47;;;16.55;;
15012;SDS011;7603;49.432;11.418;2022-10-19T04:43:48;24.13;;;10.95;;
15012;SDS011;7603;49.432;11.418;2022-10-19T04:46:18;15.48;;;9.88;;
15012;SDS011;7603;49.432;11.418;2022-10-19T04:48:45;19.33;;;11.85;;
15012;SDS011;7603;49.432;11.418;2022-10-19T04:51:12;22.08;;;11.32;;
15012;SDS011;7603;49.432;11.418;2022-10-19T04:53:39;16.52;;;10.82;;
15012;SDS011;7603;49.432;11.418;2022-10-19T04:56:06;19.13;;;10.85;;
15012;SDS011;7603;49.432;11.418;2022-10-19T04:58:36;17.33;;;12.30;;
15012;SDS011;7603;49.432;11.418;2022-10-19T05:01:08;9.70;;;7.20;;
15012;SDS011;7603;49.432;11.418;2022-10-19T05:03:45;10.63;;;6.72;;
15012;SDS011;7603;49.432;11.418;2022-10-19T05:06:11;12.85;;;7.28;;
15012;SDS011;7603;49.432;11.418;2022-10-19T05:08:38;14.75;;;9.30;;
15012;SDS011;7603;49.432;11.418;2022-10-19T05:11:05;14.40;;;9.40;;
15012;SDS011;7603;49.432;11.418;2022-10-19T05:13:33;16.77;;;10.65;;
15012;SDS011;7603;49.432;11.418;2022-10-19T05:15:59;14.55;;;11.13;;
15012;SDS011;7603;49.432;11.418;2022-10-19T05:18:26;36.88;;;14.15;;
15012;SDS011;7603;49.432;11.418;2022-10-19T05:21:09;84.47;;;17.15;;
15012;SDS011;7603;49.432;11.418;2022-10-19T05:23:37;40.20;;;13.35;;
15012;SDS011;7603;49.432;11.418;2022-10-19T05:26:05;52.40;;;14.27;;
15012;SDS011;7603;49.432;11.418;2022-10-19T05:28:35;163.60;;;21.55;;
15012;SDS011;7603;49.432;11.418;2022-10-19T05:31:11;123.40;;;18.95;;
15012;SDS011;7603;49.432;11.418;2022-10-19T05:33:41;69.63;;;17.52;;
15012;SDS011;7603;49.432;11.418;2022-10-19T05:38:53;65.82;;;26.55;;
15012;SDS011;7603;49.432;11.418;2022-10-19T05:41:21;99.95;;;35.03;;
15012;SDS011;7603;49.432;11.418;2022-10-19T05:43:51;221.52;;;49.28;;
15012;SDS011;7603;49.432;11.418;2022-10-19T05:46:18;390.65;;;91.68;;
15012;SDS011;7603;49.432;11.418;2022-10-19T05:48:44;424.85;;;97.60;;
15012;SDS011;7603;49.432;11.418;2022-10-19T05:51:11;745.33;;;153.38;;
15012;SDS011;7603;49.432;11.418;2022-10-19T05:53:38;440.17;;;96.50;;
15012;SDS011;7603;49.432;11.418;2022-10-19T05:56:06;717.58;;;182.40;;
15012;SDS011;7603;49.432;11.418;2022-10-19T05:58:34;412.38;;;93.22;;
15012;SDS011;7603;49.432;11.418;2022-10-19T06:01:00;618.17;;;118.90;;
15012;SDS011;7603;49.432;11.418;2022-10-19T06:03:26;404.60;;;57.40;;
15012;SDS011;7603;49.432;11.418;2022-10-19T06:05:53;678.47;;;109.70;;
15012;SDS011;7603;49.432;11.418;2022-10-19T06:08:20;254.75;;;31.98;;
15012;SDS011;7603;49.432;11.418;2022-10-19T06:10:47;340.50;;;38.95;;
15012;SDS011;7603;49.432;11.418;2022-10-19T06:13:13;349.50;;;34.72;;
15012;SDS011;7603;49.432;11.418;2022-10-19T06:15:40;243.57;;;32.78;;
15012;SDS011;7603;49.432;11.418;2022-10-19T06:18:06;236.80;;;31.50;;
15012;SDS011;7603;49.432;11.418;2022-10-19T06:20:33;396.25;;;30.58;;
15012;SDS011;7603;49.432;11.418;2022-10-19T06:23:03;133.55;;;13.95;;
15012;SDS011;7603;49.432;11.418;2022-10-19T06:25:30;221.38;;;19.90;;
15012;SDS011;7603;49.432;11.418;2022-10-19T06:27:56;243.60;;;26.83;;
15012;SDS011;7603;49.432;11.418;2022-10-19T06:30:22;369.15;;;35.55;;
15012;SDS011;7603;49.432;11.418;2022-10-19T06:32:48;116.00;;;21.02;;
15012;SDS011;7603;49.432;11.418;2022-10-19T06:35:13;122.93;;;22.02;;
15012;SDS011;7603;49.432;11.418;2022-10-19T06:37:40;182.32;;;34.58;;
15012;SDS011;7603;49.432;11.418;2022-10-19T06:40:06;133.50;;;24.50;;
15012;SDS011;7603;49.432;11.418;2022-10-19T06:42:32;221.35;;;36.65;;
15012;SDS011;7603;49.432;11.418;2022-10-19T06:44:58;189.30;;;25.67;;
15012;SDS011;7603;49.432;11.418;2022-10-19T06:47:23;264.90;;;19.30;;
15012;SDS011;7603;49.432;11.418;2022-10-19T06:49:55;173.13;;;20.60;;
15012;SDS011;7603;49.432;11.418;2022-10-19T06:52:21;151.75;;;23.77;;
15012;SDS011;7603;49.432;11.418;2022-10-19T06:54:47;89.78;;;18.65;;
15012;SDS011;7603;49.432;11.418;2022-10-19T06:57:12;319.17;;;30.05;;
15012;SDS011;7603;49.432;11.418;2022-10-19T06:59:38;39.22;;;10.50;;
15012;SDS011;7603;49.432;11.418;2022-10-19T07:02:04;285.73;;;33.53;;
15012;SDS011;7603;49.432;11.418;2022-10-19T07:04:29;45.22;;;10.45;;
15012;SDS011;7603;49.432;11.418;2022-10-19T07:06:55;45.30;;;7.97;;
15012;SDS011;7603;49.432;11.418;2022-10-19T07:09:21;88.40;;;10.88;;
15012;SDS011;7603;49.432;11.418;2022-10-19T07:11:46;81.28;;;6.03;;
15012;SDS011;7603;49.432;11.418;2022-10-19T07:14:12;68.85;;;7.32;;
15012;SDS011;7603;49.432;11.418;2022-10-19T07:16:38;169.48;;;11.95;;
15012;SDS011;7603;49.432;11.418;2022-10-19T07:19:04;121.82;;;10.05;;
15012;SDS011;7603;49.432;11.418;2022-10-19T07:21:30;31.38;;;6.32;;
15012;SDS011;7603;49.432;11.418;2022-10-19T07:23:55;31.98;;;6.13;;
15012;SDS011;7603;49.432;11.418;2022-10-19T07:26:22;305.13;;;21.02;;
15012;SDS011;7603;49.432;11.418;2022-10-19T07:28:55;270.63;;;21.17;;
15012;SDS011;7603;49.432;11.418;2022-10-19T07:31:21;79.97;;;8.80;;
15012;SDS011;7603;49.432;11.418;2022-10-19T07:33:58;83.50;;;7.32;;
15012;SDS011;7603;49.432;11.418;2022-10-19T07:36:25;306.75;;;25.48;;
15012;SDS011;7603;49.432;11.418;2022-10-19T07:38:53;121.90;;;11.25;;
15012;SDS011;7603;49.432;11.418;2022-10-19T07:41:19;253.93;;;19.27;;
15012;SDS011;7603;49.432;11.418;2022-10-19T07:43:46;158.38;;;12.93;;
15012;SDS011;7603;49.432;11.418;2022-10-19T07:46:13;231.95;;;10.88;;
15012;SDS011;7603;49.432;11.418;2022-10-19T07:48:44;138.10;;;8.75;;
15012;SDS011;7603;49.432;11.418;2022-10-19T07:51:11;168.55;;;9.80;;
15012;SDS011;7603;49.432;11.418;2022-10-19T07:53:38;510.80;;;44.65;;
15012;SDS011;7603;49.432;11.418;2022-10-19T07:56:08;92.53;;;7.68;;
15012;SDS011;7603;49.432;11.418;2022-10-19T07:58:36;25.92;;;3.90;;
15012;SDS011;7603;49.432;11.418;2022-10-19T08:01:12;100.78;;;7.13;;
15012;SDS011;7603;49.432;11.418;2022-10-19T08:03:42;72.53;;;7.32;;
15012;SDS011;7603;49.432;11.418;2022-10-19T08:06:09;64.30;;;6.80;;
15012;SDS011;7603;49.432;11.418;2022-10-19T08:08:36;432.73;;;32.15;;
15012;SDS011;7603;49.432;11.418;2022-10-19T08:11:06;39.85;;;6.45;;
15012;SDS011;7603;49.432;11.418;2022-10-19T08:13:33;85.30;;;9.45;;
15012;SDS011;7603;49.432;11.418;2022-10-19T08:15:59;137.75;;;11.25;;
15012;SDS011;7603;49.432;11.418;2022-10-19T08:18:24;88.65;;;10.05;;
15012;SDS011;7603;49.432;11.418;2022-10-19T08:20:50;97.07;;;11.93;;
15012;SDS011;7603;49.432;11.418;2022-10-19T08:23:16;354.85;;;21.85;;
15012;SDS011;7603;49.432;11.418;2022-10-19T08:25:41;219.32;;;15.45;;
15012;SDS011;7603;49.432;11.418;2022-10-19T08:28:07;143.88;;;10.73;;
15012;SDS011;7603;49.432;11.418;2022-10-19T08:30:33;105.43;;;10.05;;
15012;SDS011;7603;49.432;11.418;2022-10-19T08:33:00;33.60;;;4.38;;
15012;SDS011;7603;49.432;11.418;2022-10-19T08:35:26;27.55;;;3.58;;
15012;SDS011;7603;49.432;11.418;2022-10-19T08:37:51;8.50;;;2.88;;
15012;SDS011;7603;49.432;11.418;2022-10-19T08:40:18;47.60;;;5.22;;
15012;SDS011;7603;49.432;11.418;2022-10-19T08:45:48;4.50;;;2.47;;
15012;SDS011;7603;49.432;11.418;2022-10-19T08:48:28;4.30;;;2.67;;
15012;SDS011;7603;49.432;11.418;2022-10-19T08:51:00;3.15;;;2.95;;
15012;SDS011;7603;49.432;11.418;2022-10-19T08:53:32;7.65;;;3.88;;
15012;SDS011;7603;49.432;11.418;2022-10-19T09:01:19;6.63;;;6.15;;
15012;SDS011;7603;49.432;11.418;2022-10-19T09:09:54;6.57;;;6.18;;
15012;SDS011;7603;49.432;11.418;2022-10-19T09:15:14;7.82;;;7.13;;
15012;SDS011;7603;49.432;11.418;2022-10-19T09:17:44;8.55;;;7.82;;
15012;SDS011;7603;49.432;11.418;2022-10-19T09:20:15;7.57;;;6.97;;
15012;SDS011;7603;49.432;11.418;2022-10-19T09:22:48;11.63;;;7.63;;
15012;SDS011;7603;49.432;11.418;2022-10-19T09:25:23;9.77;;;8.40;;
15012;SDS011;7603;49.432;11.418;2022-10-19T09:27:57;9.95;;;8.90;;
15012;SDS011;7603;49.432;11.418;2022-10-19T09:30:30;8.07;;;7.43;;
15012;SDS011;7603;49.432;11.418;2022-10-19T09:33:01;11.93;;;8.60;;
15012;SDS011;7603;49.432;11.418;2022-10-19T09:35:35;8.50;;;7.75;;
15012;SDS011;7603;49.432;11.418;2022-10-19T09:38:05;8.50;;;7.90;;
15012;SDS011;7603;49.432;11.418;2022-10-19T09:40:32;10.85;;;7.50;;
15012;SDS011;7603;49.432;11.418;2022-10-19T09:42:59;8.80;;;8.00;;
15012;SDS011;7603;49.432;11.418;2022-10-19T09:45:41;9.85;;;8.60;;
15012;SDS011;7603;49.432;11.418;2022-10-19T09:48:31;9.82;;;8.18;;
15012;SDS011;7603;49.432;11.418;2022-10-19T09:51:17;8.48;;;7.78;;
15012;SDS011;7603;49.432;11.418;2022-10-19T09:53:45;9.52;;;8.63;;
15012;SDS011;7603;49.432;11.418;2022-10-19T09:56:17;8.35;;;7.65;;
15012;SDS011;7603;49.432;11.418;2022-10-19T09:58:49;9.23;;;8.43;;
15012;SDS011;7603;49.432;11.418;2022-10-19T10:01:35;9.02;;;8.23;;
15012;SDS011;7603;49.432;11.418;2022-10-19T10:04:06;9.98;;;7.97;;
15012;SDS011;7603;49.432;11.418;2022-10-19T10:06:34;8.77;;;7.97;;
15012;SDS011;7603;49.432;11.418;2022-10-19T10:09:00;10.45;;;9.38;;
15012;SDS011;7603;49.432;11.418;2022-10-19T10:11:29;10.65;;;9.70;;
15012;SDS011;7603;49.432;11.418;2022-10-19T10:14:16;14.82;;;13.52;;
15012;SDS011;7603;49.432;11.418;2022-10-19T10:16:45;8.68;;;7.97;;
15012;SDS011;7603;49.432;11.418;2022-10-19T10:19:12;9.80;;;9.00;;
15012;SDS011;7603;49.432;11.418;2022-10-19T10:21:47;10.38;;;9.57;;
15012;SDS011;7603;49.432;11.418;2022-10-19T10:24:17;7.78;;;7.07;;
15012;SDS011;7603;49.432;11.418;2022-10-19T10:26:48;13.60;;;8.95;;
15012;SDS011;7603;49.432;11.418;2022-10-19T10:29:30;14.18;;;12.90;;
15012;SDS011;7603;49.432;11.418;2022-10-19T10:32:05;10.90;;;9.50;;
15012;SDS011;7603;49.432;11.418;2022-10-19T10:34:36;11.70;;;9.65;;
15012;SDS011;7603;49.432;11.418;2022-10-19T10:37:06;11.38;;;10.27;;
15012;SDS011;7603;49.432;11.418;2022-10-19T10:39:39;10.82;;;10.02;;
15012;SDS011;7603;49.432;11.418;2022-10-19T10:42:08;12.43;;;11.05;;
15012;SDS011;7603;49.432;11.418;2022-10-19T10:44:49;12.82;;;10.68;;
15012;SDS011;7603;49.432;11.418;2022-10-19T10:47:17;11.68;;;10.63;;
15012;SDS011;7603;49.432;11.418;2022-10-19T10:49:59;12.00;;;10.63;;
15012;SDS011;7603;49.432;11.418;2022-10-19T10:52:28;10.15;;;9.35;;
15012;SDS011;7603;49.432;11.418;2022-10-19T10:54:59;12.75;;;11.15;;
15012;SDS011;7603;49.432;11.418;2022-10-19T10:57:32;11.57;;;10.38;;
15012;SDS011;7603;49.432;11.418;2022-10-19T11:05:29;10.75;;;9.82;;
15012;SDS011;7603;49.432;11.418;2022-10-19T11:08:00;9.63;;;8.93;;
15012;SDS011;7603;49.432;11.418;2022-10-19T11:13:26;11.75;;;10.57;;
15012;SDS011;7603;49.432;11.418;2022-10-19T11:19:28;14.15;;;12.15;;
15012;SDS011;7603;49.432;11.418;2022-10-19T11:24:57;8.50;;;7.70;;
15012;SDS011;7603;49.432;11.418;2022-10-19T11:33:38;13.93;;;12.73;;
15012;SDS011;7603;49.432;11.418;2022-10-19T11:36:40;8.43;;;7.75;;
15012;SDS011;7603;49.432;11.418;2022-10-19T11:51:08;7.05;;;6.65;;
15012;SDS011;7603;49.432;11.418;2022-10-19T12:07:28;6.70;;;6.22;;
15012;SDS011;7603;49.432;11.418;2022-10-19T12:10:25;7.10;;;6.60;;
15012;SDS011;7603;49.432;11.418;2022-10-19T12:13:00;7.30;;;6.57;;
15012;SDS011;7603;49.432;11.418;2022-10-19T12:15:29;8.23;;;7.47;;
15012;SDS011;7603;49.432;11.418;2022-10-19T12:18:10;8.43;;;7.60;;
15012;SDS011;7603;49.432;11.418;2022-10-19T12:20:58;14.80;;;13.13;;
15012;SDS011;7603;49.432;11.418;2022-10-19T12:23:32;14.52;;;13.13;;
15012;SDS011;7603;49.432;11.418;2022-10-19T12:26:01;27.67;;;20.45;;
15012;SDS011;7603;49.432;11.418;2022-10-19T12:28:31;10.90;;;9.98;;
15012;SDS011;7603;49.432;11.418;2022-10-19T12:30:58;8.65;;;7.25;;
15012;SDS011;7603;49.432;11.418;2022-10-19T12:36:00;7.70;;;7.10;;
15012;SDS011;7603;49.432;11.418;2022-10-19T12:39:03;6.85;;;6.38;;
15012;SDS011;7603;49.432;11.418;2022-10-19T12:44:51;8.02;;;7.18;;
15012;SDS011;7603;49.432;11.418;2022-10-19T12:47:32;6.60;;;6.05;;
15012;SDS011;7603;49.432;11.418;2022-10-19T12:49:58;7.75;;;7.13;;
15012;SDS011;7603;49.432;11.418;2022-10-19T12:57:59;6.97;;;6.50;;
15012;SDS011;7603;49.432;11.418;2022-10-19T13:00:29;6.97;;;6.45;;
15012;SDS011;7603;49.432;11.418;2022-10-19T13:03:04;8.75;;;6.88;;
15012;SDS011;7603;49.432;11.418;2022-10-19T13:05:31;6.70;;;6.30;;
15012;SDS011;7603;49.432;11.418;2022-10-19T13:07:59;6.78;;;5.97;;
15012;SDS011;7603;49.432;11.418;2022-10-19T13:10:27;7.28;;;6.72;;
15012;SDS011;7603;49.432;11.418;2022-10-19T13:12:55;6.88;;;6.38;;
15012;SDS011;7603;49.432;11.418;2022-10-19T13:18:01;8.23;;;7.63;;
15012;SDS011;7603;49.432;11.418;2022-10-19T13:25:31;9.32;;;8.68;;
15012;SDS011;7603;49.432;11.418;2022-10-19T13:35:50;5.10;;;4.80;;
15012;SDS011;7603;49.432;11.418;2022-10-19T13:43:50;5.13;;;4.72;;
15012;SDS011;7603;49.432;11.418;2022-10-19T14:05:28;6.22;;;5.72;;
15012;SDS011;7603;49.432;11.418;2022-10-19T14:11:01;5.47;;;5.18;;
15012;SDS011;7603;49.432;11.418;2022-10-19T14:13:35;21.30;;;17.63;;
15012;SDS011;7603;49.432;11.418;2022-10-19T14:16:01;7.05;;;6.55;;
15012;SDS011;7603;49.432;11.418;2022-10-19T14:20:58;8.10;;;7.50;;
15012;SDS011;7603;49.432;11.418;2022-10-19T14:23:27;7.05;;;6.45;;
15012;SDS011;7603;49.432;11.418;2022-10-19T14:25:56;5.57;;;5.00;;
15012;SDS011;7603;49.432;11.418;2022-10-19T14:28:24;6.75;;;6.20;;
15012;SDS011;7603;49.432;11.418;2022-10-19T14:31:09;5.57;;;5.13;;
15012;SDS011;7603;49.432;11.418;2022-10-19T14:33:49;17.38;;;11.75;;
15012;SDS011;7603;49.432;11.418;2022-10-19T14:36:17;6.60;;;5.93;;
15012;SDS011;7603;49.432;11.418;2022-10-19T14:38:45;8.13;;;5.47;;
15012;SDS011;7603;49.432;11.418;2022-10-19T14:41:28;4.85;;;4.45;;
15012;SDS011;7603;49.432;11.418;2022-10-19T14:43:56;4.68;;;4.38;;
15012;SDS011;7603;49.432;11.418;2022-10-19T14:46:28;13.93;;;4.88;;
15012;SDS011;7603;49.432;11.418;2022-10-19T14:48:59;5.00;;;4.60;;
15012;SDS011;7603;49.432;11.418;2022-10-19T14:54:13;5.63;;;5.20;;
15012;SDS011;7603;49.432;11.418;2022-10-19T14:57:06;5.38;;;5.07;;
15012;SDS011;7603;49.432;11.418;2022-10-19T14:59:38;6.57;;;5.97;;
15012;SDS011;7603;49.432;11.418;2022-10-19T15:02:16;6.65;;;5.40;;
15012;SDS011;7603;49.432;11.418;2022-10-19T15:04:58;8.18;;;5.88;;
15012;SDS011;7603;49.432;11.418;2022-10-19T15:07:29;8.05;;;7.30;;
15012;SDS011;7603;49.432;11.418;2022-10-19T15:10:03;6.03;;;5.53;;
15012;SDS011;7603;49.432;11.418;2022-10-19T15:12:40;5.40;;;5.03;;
15012;SDS011;7603;49.432;11.418;2022-10-19T15:15:29;20.42;;;12.50;;
15012;SDS011;7603;49.432;11.418;2022-10-19T15:17:55;5.97;;;5.55;;
15012;SDS011;7603;49.432;11.418;2022-10-19T15:22:59;6.40;;;5.82;;
15012;SDS011;7603;49.432;11.418;2022-10-19T15:27:54;6.15;;;5.60;;
15012;SDS011;7603;49.432;11.418;2022-10-19T15:30:26;6.47;;;6.10;;
15012;SDS011;7603;49.432;11.418;2022-10-19T15:38:01;8.32;;;5.75;;
15012;SDS011;7603;49.432;11.418;2022-10-19T15:40:33;6.15;;;5.53;;
15012;SDS011;7603;49.432;11.418;2022-10-19T15:45:48;6.10;;;5.55;;
15012;SDS011;7603;49.432;11.418;2022-10-19T15:53:50;8.07;;;7.18;;
15012;SDS011;7603;49.432;11.418;2022-10-19T15:56:24;13.18;;;8.10;;
15012;SDS011;7603;49.432;11.418;2022-10-19T15:58:52;10.80;;;6.97;;
15012;SDS011;7603;49.432;11.418;2022-10-19T16:01:20;12.70;;;6.93;;
15012;SDS011;7603;49.432;11.418;2022-10-19T16:03:49;8.80;;;7.95;;
15012;SDS011;7603;49.432;11.418;2022-10-19T16:06:15;8.80;;;7.82;;
15012;SDS011;7603;49.432;11.418;2022-10-19T16:08:42;9.07;;;8.38;;
15012;SDS011;7603;49.432;11.418;2022-10-19T16:11:13;13.60;;;11.02;;
15012;SDS011;7603;49.432;11.418;2022-10-19T16:13:40;19.88;;;11.95;;
15012;SDS011;7603;49.432;11.418;2022-10-19T16:16:06;12.73;;;11.32;;
15012;SDS011;7603;49.432;11.418;2022-10-19T16:18:34;11.48;;;9.60;;
15012;SDS011;7603;49.432;11.418;2022-10-19T16:21:00;9.90;;;8.55;;
15012;SDS011;7603;49.432;11.418;2022-10-19T16:23:26;13.25;;;9.35;;
15012;SDS011;7603;49.432;11.418;2022-10-19T16:25:52;9.15;;;8.38;;
15012;SDS011;7603;49.432;11.418;2022-10-19T16:28:18;17.10;;;11.32;;
15012;SDS011;7603;49.432;11.418;2022-10-19T16:30:44;12.02;;;10.82;;
15012;SDS011;7603;49.432;11.418;2022-10-19T16:33:15;14.05;;;10.18;;
15012;SDS011;7603;49.432;11.418;2022-10-19T16:35:40;10.55;;;9.13;;
15012;SDS011;7603;49.432;11.418;2022-10-19T16:38:06;10.77;;;9.43;;
15012;SDS011;7603;49.432;11.418;2022-10-19T16:40:32;11.77;;;9.45;;
15012;SDS011;7603;49.432;11.418;2022-10-19T16:42:57;11.48;;;10.05;;
15012;SDS011;7603;49.432;11.418;2022-10-19T16:45:25;12.00;;;9.52;;
15012;SDS011;7603;49.432;11.418;2022-10-19T16:47:51;10.82;;;9.80;;
15012;SDS011;7603;49.432;11.418;2022-10-19T16:50:17;19.60;;;10.48;;
15012;SDS011;7603;49.432;11.418;2022-10-19T16:52:43;12.07;;;10.43;;
15012;SDS011;7603;49.432;11.418;2022-10-19T16:55:09;13.35;;;11.75;;
15012;SDS011;7603;49.432;11.418;2022-10-19T16:57:34;33.67;;;21.58;;
15012;SDS011;7603;49.432;11.418;2022-10-19T17:00:01;13.05;;;11.68;;
15012;SDS011;7603;49.432;11.418;2022-10-19T17:02:28;12.77;;;11.57;;
15012;SDS011;7603;49.432;11.418;2022-10-19T17:04:54;15.63;;;11.38;;
15012;SDS011;7603;49.432;11.418;2022-10-19T17:07:20;13.70;;;10.63;;
15012;SDS011;7603;49.432;11.418;2022-10-19T17:09:45;15.85;;;11.45;;
15012;SDS011;7603;49.432;11.418;2022-10-19T17:12:11;13.88;;;11.30;;
15012;SDS011;7603;49.432;11.418;2022-10-19T17:14:38;14.50;;;11.32;;
15012;SDS011;7603;49.432;11.418;2022-10-19T17:17:05;15.85;;;11.18;;
15012;SDS011;7603;49.432;11.418;2022-10-19T17:19:31;12.73;;;10.80;;
15012;SDS011;7603;49.432;11.418;2022-10-19T17:21:57;12.05;;;10.77;;
15012;SDS011;7603;49.432;11.418;2022-10-19T17:24:23;12.82;;;11.63;;
15012;SDS011;7603;49.432;11.418;2022-10-19T17:26:50;17.90;;;13.90;;